Airfield :
LOGIN :

Register | Disclaimer

   EN    FR    IT 

 










Legend :    VFR   Marginal VFR   IFR   Intensive IFR   Very Intensive IFR
Visi :
Ceiling :
>= 8 km
>= 3000ft
5 to 8 km
1000 to 3000 ft
1500m to 5 km
500 to 1000 ft
800 to 1500m
200 to 500 ft
< 800m
< 200 ft
Symbols :   Thunderstorms  Fog  Heavy snow  Heavy precipitations  Wind > 20 kt
SIGMETs :     Misc.  Thunderstorms  Icing  Turbulence  Mountain Waves  Volcanic Ashes







- Airport Elevation : -15 ft
- IATA code : RTM


EHRD - Rotterdam Zestienhoven

CURRENT METAR :
  • 261055Z AUTO 23018KT 190V280 9999 SCT027 SCT031 20/13 Q1012 NOSIG

EXPIRED METARs :
  • 261025Z AUTO 24014KT 210V270 9999 FEW022 20/13 Q1013 NOSIG
  • 260955Z AUTO 24012KT 210V270 9999 SCT022 BKN025 19/13 Q1013 NOSIG
  • 260925Z AUTO 24013KT 200V280 9999 BKN021 BKN024 19/13 Q1013 NOSIG
  • 260855Z AUTO 24011KT 190V280 9999 SCT016 BKN019 18/13 Q1013 NOSIG
  • 260825Z AUTO 23010KT 190V270 9999 SCT015 18/13 Q1013 NOSIG

TAF TAF EHRD
Valid from the 26 at 06:00 until the 27 at 12:00 UTC


260458Z 2606/2712 24010KT 9999 BKN045
BECMG 2608/2611 24016G26KT
BECMG 2619/2622 7000 -RA SCT010 BKN015
TEMPO 2621/2624 4000 RA SHRA BKN008 FEW020CB
BECMG 2623/2701 29008KT 9999 NSW SCT040
BECMG 2708/2711 26012KT
No reported NOTAMs for that airfield.



MET'MAP, your aeronautical weather chart ! - Copyright ORBIFLY December 2007 - Disclaimer

ORBIFLY MET'MAP TEAM :

Programming & Development : Alexandra Zaïnal
Concept & Development : Baudouin d'Aumeries
Co-Development & Prog : Marc-Olivier Méhu
Technical & hardware support : Manuel Goepfert

Contact : metmap@orbifly.com




SOURCES & CREDITS :

   NOAA